Главная страница
METAR-TAF:

METAR-TAF

Аэропорты :

Дакар, Сенегал

широта: 14-44N, долгота: 017-30W, высота над уровнем моря: 27 м

Текущие метеонаблюдения

Эта сводка был подготовлена 3 часа и 3 минут назад, в 03:00 UTC
Ветер 8 Узел от западный
Температура 24°C
Влажность 89%
Давление 1012 hPa
Видимость: 8000 м
Рассеянная облачность на высоте 1300 фута

METAR: GOOY 250300Z 28008KT 8000 BKN013 24/22 Q1012

Время: 06:03 (06:03 UTC)

Прогноз

Эта сводка был подготовлена 33 минут назад, в 05:30 UTC
Прогноз действительный с 25-го 06 UTC до 26-го 12 UTC
Ветер 8 Узел от западный
Видимость: 8000 м
Рассеянная облачность на высоте 1300 фута

TAF: GOOY 250530Z 2506/2612 28008KT 8000 BKN013

Метеонаблюдения и прогнозы для более 4000 аэропортов (сводки METAR и TAF).

Имеющиеся станции представлены на карте желтыми и красными точками.

Чтобы увидеть название станции, наведите на нее мышь.

Затем щелкните, чтобы увидеть метеонаблюдения и метеопрогнозы.

Управление картой: чтобы увеличить масштаб, щелкните зеленые кнопки с черным крестиком; чтобы уменьшить масштаб, щелкните зеленую кнопку с тире; для просмотра соседних карт щелкайте зеленые стрелки.


METAR-TAF: